Time;durP1;ratioP1;P1;durP2;ratioP2;P2;SDS_P1;SDS_P2;PMS_P1;PMS_P2;Temp;Humidity;BMP_temperature;BMP_pressure;BME280_temperature;BME280_humidity;BME280_pressure;Samples;Min_cycle;Max_cycle;Signal;HPM_P1;HPM_P2
2021/04/13 04:00:21;;;;;;;5.57;5.07;;;1.80;99.90;;;;;;6001087;23;20476;31
2021/04/13 04:02:48;;;;;;;8.15;5.95;;;1.80;99.90;;;;;;4914794;29;20266;-74
2021/04/13 04:05:18;;;;;;;8.57;5.85;;;1.90;99.90;;;;;;4928165;29;20217;-74
2021/04/13 04:07:50;;;;;;;6.70;6.07;;;1.90;99.90;;;;;;4934857;29;20221;-74
2021/04/13 04:10:46;;;;;;;7.32;6.40;;;1.80;99.90;;;;;;4921366;29;20626;-74
2021/04/13 04:13:22;;;;;;;8.32;6.63;;;1.80;99.90;;;;;;4897641;29;20217;-74
2021/04/13 04:15:51;;;;;;;12.75;6.90;;;1.80;99.90;;;;;;4911728;29;20206;-74
2021/04/13 04:18:28;;;;;;;9.32;6.97;;;1.90;99.90;;;;;;4915294;29;20229;-71
2021/04/13 04:20:55;;;;;;;10.38;7.40;;;1.80;99.90;;;;;;4900165;29;20223;-71
2021/04/13 04:23:28;;;;;;;14.98;8.85;;;1.80;99.90;;;;;;4897853;29;20359;-71
2021/04/13 04:25:59;;;;;;;9.32;7.25;;;1.80;99.90;;;;;;4906742;29;20207;-71
2021/04/13 04:28:29;;;;;;;8.35;7.43;;;1.80;99.90;;;;;;4915780;29;20572;-71
2021/04/13 04:31:34;;;;;;;9.77;8.63;;;1.80;99.90;;;;;;4904713;29;20260;-71
2021/04/13 04:34:00;;;;;;;12.38;7.95;;;1.90;99.90;;;;;;4914884;29;20203;-71
2021/04/13 04:36:29;;;;;;;11.73;8.02;;;1.90;99.90;;;;;;4907316;29;20218;-72
2021/04/13 04:38:56;;;;;;;8.20;7.15;;;1.90;99.90;;;;;;4903569;29;20296;-72
2021/04/13 04:41:36;;;;;;;9.15;8.25;;;1.90;99.90;;;;;;4907662;29;20287;-72
2021/04/13 04:44:03;;;;;;;11.13;7.70;;;1.90;99.90;;;;;;4899150;29;20298;-70
2021/04/13 04:46:39;;;;;;;8.30;7.47;;;1.90;99.90;;;;;;4904673;29;20293;-71
2021/04/13 04:49:08;;;;;;;16.42;8.07;;;2.00;99.90;;;;;;4899089;29;20683;-70
2021/04/13 04:51:35;;;;;;;9.60;7.32;;;2.00;99.90;;;;;;4912802;29;20231;-70
2021/04/13 04:54:01;;;;;;;10.25;8.27;;;2.10;99.90;;;;;;4897146;29;20344;-70
2021/04/13 04:56:27;;;;;;;9.38;8.48;;;2.20;99.90;;;;;;4913984;29;20269;-71
2021/04/13 04:58:53;;;;;;;10.18;7.68;;;2.30;99.90;;;;;;4898214;29;20214;-71
2021/04/13 05:01:20;;;;;;;12.02;7.85;;;2.40;99.90;;;;;;4906834;29;20302;-71
2021/04/13 05:03:47;;;;;;;10.85;7.90;;;2.50;99.90;;;;;;4915215;29;20202;-71
2021/04/13 05:06:13;;;;;;;14.07;8.20;;;2.50;99.90;;;;;;4907498;29;20206;-71
2021/04/13 05:08:40;;;;;;;10.88;8.80;;;2.60;99.90;;;;;;4916443;29;20210;-70
2021/04/13 05:11:06;;;;;;;9.23;7.72;;;2.70;99.90;;;;;;4905079;29;20230;-72
2021/04/13 05:13:32;;;;;;;9.27;7.68;;;2.80;99.90;;;;;;4915922;29;20215;-72
2021/04/13 05:15:59;;;;;;;14.30;8.45;;;2.90;99.90;;;;;;4916172;29;20218;-72
2021/04/13 05:18:25;;;;;;;14.48;9.20;;;3.00;99.90;;;;;;4915587;29;20547;-73
2021/04/13 05:20:53;;;;;;;8.23;7.38;;;3.00;99.90;;;;;;4902239;29;20600;-72
2021/04/13 05:23:19;;;;;;;10.98;8.05;;;3.10;99.90;;;;;;4900986;29;20211;-72
2021/04/13 05:25:45;;;;;;;11.23;7.63;;;3.10;99.90;;;;;;4900709;29;20624;-73
2021/04/13 05:28:13;;;;;;;12.93;7.72;;;3.10;99.90;;;;;;4906965;29;20212;-73
2021/04/13 05:30:39;;;;;;;14.32;7.72;;;3.20;99.90;;;;;;4903789;29;20566;-73
2021/04/13 05:33:05;;;;;;;10.25;8.00;;;3.20;99.90;;;;;;4911654;29;20212;-73
2021/04/13 05:35:32;;;;;;;8.70;7.80;;;3.30;99.90;;;;;;4919127;29;20199;-74
2021/04/13 05:38:02;;;;;;;10.32;7.85;;;3.30;99.90;;;;;;4903366;29;20263;-73
2021/04/13 05:40:32;;;;;;;10.85;7.43;;;3.40;99.90;;;;;;4902532;29;20230;-73
2021/04/13 05:42:59;;;;;;;9.65;8.38;;;3.60;99.90;;;;;;4918476;29;20259;-73
2021/04/13 05:45:28;;;;;;;9.27;7.57;;;3.80;99.90;;;;;;4903515;29;20219;-72
2021/04/13 05:47:56;;;;;;;9.32;8.52;;;4.00;99.90;;;;;;4918354;29;20203;-73
2021/04/13 05:50:26;;;;;;;7.18;6.40;;;4.20;99.90;;;;;;4903218;29;20226;-73
2021/04/13 05:52:52;;;;;;;13.02;6.68;;;4.40;99.90;;;;;;4919201;29;20251;-73
2021/04/13 05:55:19;;;;;;;9.48;8.10;;;4.70;99.90;;;;;;4921006;29;20207;-73
2021/04/13 05:57:48;;;;;;;6.63;6.10;;;5.10;99.90;;;;;;4907146;29;20268;-71
2021/04/13 06:00:15;;;;;;;8.75;6.05;;;5.30;99.90;;;;;;4909915;29;20202;-72
2021/04/13 06:02:42;;;;;;;7.25;5.82;;;5.40;99.90;;;;;;4920743;29;20313;-71
2021/04/13 06:05:10;;;;;;;10.80;6.50;;;5.30;99.90;;;;;;4917998;29;20213;-72
2021/04/13 06:07:36;;;;;;;7.28;6.47;;;5.10;99.90;;;;;;4922602;29;20560;-72
2021/04/13 06:10:03;;;;;;;6.88;6.25;;;4.90;99.90;;;;;;4915203;29;20239;-72
2021/04/13 06:12:31;;;;;;;7.70;7.00;;;4.80;99.90;;;;;;4903256;29;20235;-71
2021/04/13 06:14:57;;;;;;;8.43;6.57;;;4.70;99.90;;;;;;4902470;29;20259;-72
2021/04/13 06:17:23;;;;;;;6.60;6.05;;;4.60;99.90;;;;;;4909004;29;20227;-73
2021/04/13 06:19:49;;;;;;;6.80;6.20;;;4.50;99.90;;;;;;4921589;29;20719;-73
2021/04/13 06:22:16;;;;;;;10.40;6.80;;;4.50;99.90;;;;;;4918329;29;20234;-73
2021/04/13 06:24:42;;;;;;;8.00;5.95;;;4.50;99.90;;;;;;4913015;29;20214;-72
2021/04/13 06:27:09;;;;;;;9.05;5.97;;;4.50;99.90;;;;;;4917531;29;20210;-73
2021/04/13 06:29:38;;;;;;;7.38;6.65;;;4.60;99.90;;;;;;4899605;29;20207;-73
2021/04/13 06:32:06;;;;;;;8.77;5.97;;;4.70;99.90;;;;;;4899081;29;20245;-72
2021/04/13 06:34:32;;;;;;;9.18;5.68;;;4.80;99.90;;;;;;4899619;29;20208;-71
2021/04/13 06:36:59;;;;;;;10.70;5.93;;;4.80;99.90;;;;;;4900749;29;20207;-71
2021/04/13 06:39:25;;;;;;;5.88;5.38;;;4.70;99.90;;;;;;4917969;29;20643;-71
2021/04/13 06:42:04;;;;;;;8.80;6.43;;;4.70;99.90;;;;;;4916098;29;20223;-70
2021/04/13 06:44:51;;;;;;;22.50;16.20;;;4.70;99.90;;;;;;4900615;29;20267;-69
2021/04/13 06:47:24;;;;;;;9.13;6.68;;;4.70;99.90;;;;;;4900471;29;20247;-72
2021/04/13 06:50:10;;;;;;;6.82;5.72;;;4.70;99.90;;;;;;4899947;29;20219;-72
2021/04/13 06:52:50;;;;;;;6.35;5.82;;;4.70;99.90;;;;;;4912687;29;20215;-72
2021/04/13 06:55:29;;;;;;;6.83;6.13;;;4.70;99.90;;;;;;4904163;29;20978;-73
2021/04/13 06:58:07;;;;;;;12.23;5.70;;;4.80;99.90;;;;;;4910176;29;20938;-73
2021/04/13 07:00:53;;;;;;;6.20;5.60;;;4.90;99.90;;;;;;4922020;29;20290;-72
2021/04/13 07:03:27;;;;;;;5.13;4.70;;;5.00;99.90;;;;;;4900251;29;20218;-72
2021/04/13 07:05:59;;;;;;;5.78;5.10;;;5.10;99.90;;;;;;4900031;29;20347;-72
2021/04/13 07:08:31;;;;;;;6.60;4.75;;;5.30;99.90;;;;;;4917873;29;20206;-72
2021/04/13 07:11:04;;;;;;;5.35;4.45;;;5.50;99.90;;;;;;4915121;29;20245;-72
2021/04/13 07:13:38;;;;;;;4.13;3.80;;;5.90;99.90;;;;;;4907107;29;20280;-72
2021/04/13 07:16:15;;;;;;;6.05;3.60;;;6.10;99.90;;;;;;4898898;29;20206;-72
2021/04/13 07:18:46;;;;;;;2.95;2.80;;;6.30;99.90;;;;;;4906696;29;20286;-72
2021/04/13 07:21:16;;;;;;;3.20;2.88;;;6.30;99.90;;;;;;4900966;29;20223;-72
2021/04/13 07:23:47;;;;;;;3.13;2.67;;;6.20;99.90;;;;;;4905544;29;20286;-71
2021/04/13 07:26:20;;;;;;;2.95;2.75;;;6.30;99.90;;;;;;4902322;29;20210;-67
2021/04/13 07:28:53;;;;;;;1.88;1.77;;;6.20;99.90;;;;;;4902101;29;20207;-68
2021/04/13 07:31:26;;;;;;;2.33;2.13;;;6.00;99.90;;;;;;4908710;29;20616;-69
2021/04/13 07:33:52;;;;;;;2.90;2.67;;;5.90;99.90;;;;;;4902729;29;20247;-69
2021/04/13 07:36:22;;;;;;;4.32;2.42;;;5.90;99.90;;;;;;4909133;29;20545;-69
2021/04/13 07:38:51;;;;;;;6.00;4.43;;;6.00;99.90;;;;;;4917023;29;20246;-70
2021/04/13 07:41:23;;;;;;;2.70;2.00;;;6.00;99.90;;;;;;4908675;29;20294;-69
2021/04/13 07:43:56;;;;;;;1.85;1.60;;;6.10;99.90;;;;;;4899246;29;20242;-68
2021/04/13 07:46:47;;;;;;;2.33;2.05;;;6.10;99.90;;;;;;4905491;29;20878;-71
2021/04/13 07:49:15;;;;;;;1.90;1.80;;;6.10;99.90;;;;;;4899227;29;20230;-72
2021/04/13 07:51:57;;;;;;;2.95;2.85;;;6.30;99.90;;;;;;4903767;29;20255;-71
2021/04/13 07:54:39;;;;;;;3.75;1.83;;;6.50;99.90;;;;;;4916602;29;20297;-72
2021/04/13 07:57:09;;;;;;;2.85;1.42;;;6.80;99.90;;;;;;4904568;29;20206;-72
2021/04/13 07:59:44;;;;;;;2.40;2.22;;;7.00;99.90;;;;;;4913259;29;20290;-71
2021/04/13 08:02:12;;;;;;;4.50;1.52;;;7.20;99.90;;;;;;4903564;29;20238;-71
2021/04/13 08:04:38;;;;;;;2.58;1.00;;;7.20;99.90;;;;;;4909120;29;20215;-71
2021/04/13 08:07:13;;;;;;;1.52;1.42;;;7.10;99.90;;;;;;4900616;29;20203;-72
2021/04/13 08:09:42;;;;;;;1.50;1.50;;;7.00;99.90;;;;;;4907750;29;20225;-72
2021/04/13 08:12:21;;;;;;;2.00;1.77;;;7.00;99.90;;;;;;4911431;29;20226;-72
2021/04/13 08:14:50;;;;;;;5.00;1.60;;;7.20;99.90;;;;;;4916150;29;20628;-68
2021/04/13 08:17:21;;;;;;;7.20;1.50;;;7.30;99.90;;;;;;4915316;29;20198;-69
2021/04/13 08:19:58;;;;;;;9.55;2.78;;;7.30;99.90;;;;;;4904248;29;20242;-72
2021/04/13 08:22:25;;;;;;;2.45;1.60;;;7.20;99.90;;;;;;4899766;29;20666;-69
2021/04/13 08:24:54;;;;;;;2.10;1.50;;;7.30;99.90;;;;;;4901406;29;20202;-71
2021/04/13 08:27:31;;;;;;;2.60;1.80;;;7.30;99.90;;;;;;4899565;29;20211;-69
2021/04/13 08:30:04;;;;;;;5.18;1.55;;;7.30;99.90;;;;;;4897706;29;20219;-70
2021/04/13 08:33:04;;;;;;;6.55;1.33;;;7.40;99.90;;;;;;4903694;29;20295;-69
2021/04/13 08:35:35;;;;;;;4.93;1.25;;;7.70;99.90;;;;;;4905300;29;20589;-70
2021/04/13 08:38:20;;;;;;;3.17;1.95;;;7.90;99.90;;;;;;4907696;29;20757;-69
2021/04/13 08:41:05;;;;;;;2.75;1.80;;;8.00;99.90;;;;;;4914925;29;20945;-69
2021/04/13 08:43:38;;;;;;;2.60;1.42;;;8.00;99.90;;;;;;4900981;29;20211;-69
2021/04/13 08:46:26;;;;;;;1.58;1.30;;;7.80;99.90;;;;;;4904827;29;20674;-69
2021/04/13 08:49:01;;;;;;;1.50;1.40;;;7.80;99.90;;;;;;4922054;29;20257;-70
2021/04/13 08:51:36;;;;;;;4.20;1.52;;;7.90;99.90;;;;;;4915720;29;20309;-73
2021/04/13 08:54:24;;;;;;;8.30;1.52;;;7.90;99.90;;;;;;4917375;29;20222;-70
2021/04/13 08:56:56;;;;;;;1.15;1.00;;;8.00;99.90;;;;;;4910824;29;20207;-70
2021/04/13 08:59:41;;;;;;;4.28;1.65;;;8.00;99.90;;;;;;4925279;29;20225;-71
2021/04/13 09:02:11;;;;;;;1.00;1.00;;;8.10;99.90;;;;;;4918598;29;20234;-69
2021/04/13 09:04:38;;;;;;;1.75;1.40;;;8.10;99.90;;;;;;4923064;29;20221;-69
2021/04/13 09:07:08;;;;;;;7.80;2.70;;;8.10;99.90;;;;;;4925828;29;20270;-69
2021/04/13 09:09:42;;;;;;;4.95;1.88;;;7.90;99.90;;;;;;4928351;29;20229;-69
2021/04/13 09:12:20;;;;;;;5.55;1.95;;;8.00;99.90;;;;;;4919408;29;20249;-71
2021/04/13 09:14:52;;;;;;;4.75;1.90;;;8.10;99.90;;;;;;4913483;29;20224;-72
2021/04/13 09:17:29;;;;;;;2.05;1.40;;;8.20;99.90;;;;;;4918614;29;20286;-73
2021/04/13 09:20:14;;;;;;;1.77;1.48;;;8.20;99.90;;;;;;4918383;29;20258;-73
2021/04/13 09:22:49;;;;;;;3.03;1.75;;;8.10;99.90;;;;;;4927735;29;20207;-72
2021/04/13 09:25:28;;;;;;;5.50;1.83;;;8.00;99.90;;;;;;4930660;29;20214;-73
2021/04/13 09:28:02;;;;;;;5.18;1.80;;;8.00;99.90;;;;;;4913522;29;20211;-73
2021/04/13 09:30:33;;;;;;;4.50;2.40;;;8.00;99.90;;;;;;4912249;29;20238;-72
2021/04/13 09:33:12;;;;;;;6.43;2.63;;;8.10;99.90;;;;;;4914420;29;20215;-72
2021/04/13 09:36:03;;;;;;;2.00;1.90;;;8.20;99.90;;;;;;4921511;29;20210;-70
2021/04/13 09:38:51;;;;;;;3.80;1.85;;;8.30;99.90;;;;;;4932043;29;20210;-70
2021/04/13 09:41:30;;;;;;;5.70;1.85;;;8.30;99.90;;;;;;4918160;29;20234;-70
2021/04/13 09:44:15;;;;;;;3.55;2.20;;;8.20;99.90;;;;;;4911815;29;20207;-71
2021/04/13 09:46:53;;;;;;;4.30;1.83;;;8.20;99.90;;;;;;4909340;29;20214;-70
2021/04/13 09:49:34;;;;;;;2.53;1.80;;;8.20;99.90;;;;;;4914788;29;20647;-71
2021/04/13 09:52:22;;;;;;;5.50;2.05;;;8.10;99.90;;;;;;4903137;29;20344;-71
2021/04/13 09:54:54;;;;;;;10.82;1.98;;;8.10;99.90;;;;;;4904124;29;20770;-71
2021/04/13 09:57:51;;;;;;;5.10;1.40;;;8.10;99.90;;;;;;4915027;29;20283;-71
2021/04/13 10:00:41;;;;;;;2.92;1.58;;;8.00;99.90;;;;;;4916318;29;20195;-71
2021/04/13 10:03:47;;;;;;;2.92;1.25;;;8.00;99.90;;;;;;4907470;29;20233;-71
2021/04/13 10:06:15;;;;;;;9.90;2.00;;;8.20;99.90;;;;;;4907674;29;20202;-71
2021/04/13 10:08:47;;;;;;;27.95;12.52;;;8.30;99.90;;;;;;4907113;29;20231;-69
2021/04/13 10:11:38;;;;;;;13.57;2.20;;;8.50;99.90;;;;;;4907830;29;20301;-69
2021/04/13 10:14:27;;;;;;;3.55;1.50;;;8.70;99.90;;;;;;4886758;29;20213;-70
2021/04/13 10:17:07;;;;;;;2.40;1.20;;;8.90;99.90;;;;;;4907240;29;20227;-69
2021/04/13 10:19:59;;;;;;;3.78;3.00;;;9.00;99.90;;;;;;4902881;29;20577;-69
2021/04/13 10:22:52;;;;;;;4.47;1.40;;;9.10;99.90;;;;;;4912342;29;20301;-69
2021/04/13 10:25:43;;;;;;;1.95;1.70;;;9.30;99.90;;;;;;4911803;29;20210;-70
2021/04/13 10:28:48;;;;;;;2.75;1.35;;;9.30;99.90;;;;;;4906623;29;20287;-69
2021/04/13 10:31:35;;;;;;;4.78;1.95;;;9.40;99.90;;;;;;4889950;29;20303;-70
2021/04/13 10:34:34;;;;;;;5.25;1.50;;;9.60;99.90;;;;;;4900269;29;20203;-70
2021/04/13 10:37:13;;;;;;;2.38;1.20;;;9.80;99.90;;;;;;4913304;29;20206;-73
2021/04/13 10:39:45;;;;;;;3.90;1.38;;;9.80;99.90;;;;;;4911129;29;20255;-74
2021/04/13 10:42:46;;;;;;;4.65;1.63;;;9.80;99.90;;;;;;4913176;29;20229;-73
2021/04/13 10:45:23;;;;;;;5.85;1.88;;;9.70;99.90;;;;;;4907452;29;20210;-73
2021/04/13 10:48:46;;;;;;;1.05;1.00;;;9.50;99.90;;;;;;4908728;29;20217;-73
2021/04/13 10:51:52;;;;;;;4.22;1.77;;;9.30;99.90;;;;;;4910117;29;20315;-72
2021/04/13 10:55:06;;;;;;;1.23;0.80;;;9.00;99.90;;;;;;4907655;29;20735;-72
2021/04/13 10:58:10;;;;;;;3.75;1.30;;;9.10;99.90;;;;;;4915940;29;20210;-72
2021/04/13 11:00:42;;;;;;;2.72;2.08;;;9.40;99.90;;;;;;4914515;29;20223;-72
2021/04/13 11:03:51;;;;;;;1.60;0.68;;;9.50;99.90;;;;;;4907292;29;20226;-72
2021/04/13 11:07:11;;;;;;;1.65;1.20;;;9.00;99.90;;;;;;4911151;29;20674;-71
2021/04/13 11:10:03;;;;;;;1.10;0.98;;;8.40;99.90;;;;;;4900796;29;20223;-72
2021/04/13 11:13:30;;;;;;;1.65;1.50;;;7.90;99.90;;;;;;4902260;29;20663;-72
2021/04/13 11:16:41;;;;;;;1.45;1.35;;;7.50;99.90;;;;;;4902783;29;20219;-72
2021/04/13 11:19:22;;;;;;;1.58;0.90;;;7.30;99.90;;;;;;4906010;29;20601;-72
2021/04/13 11:22:39;;;;;;;1.38;0.90;;;7.20;99.90;;;;;;4898604;29;20730;-71
2021/04/13 11:25:36;;;;;;;1.90;0.70;;;7.20;99.90;;;;;;4903109;29;20294;-71
2021/04/13 11:28:34;;;;;;;2.17;0.70;;;7.30;99.90;;;;;;4913493;29;20210;-70
2021/04/13 11:31:37;;;;;;;0.93;0.65;;;7.30;99.90;;;;;;4904823;29;20242;-72
2021/04/13 11:34:19;;;;;;;0.90;0.77;;;7.40;99.90;;;;;;4901882;29;20199;-72
2021/04/13 11:37:08;;;;;;;3.22;0.80;;;7.30;99.90;;;;;;4913868;29;20550;-69
2021/04/13 11:39:39;;;;;;;4.30;1.20;;;7.30;99.90;;;;;;4904516;29;20207;-72
2021/04/13 11:42:18;;;;;;;1.98;1.20;;;7.30;99.90;;;;;;4906729;29;20231;-69
2021/04/13 11:44:57;;;;;;;3.63;0.82;;;7.40;99.90;;;;;;4909100;29;20689;-70
2021/04/13 11:47:35;;;;;;;3.00;1.55;;;7.50;99.90;;;;;;4915655;29;20269;-70
2021/04/13 11:50:07;;;;;;;1.13;1.02;;;7.70;99.90;;;;;;4913860;29;20207;-69
2021/04/13 11:52:43;;;;;;;6.70;2.08;;;7.80;99.90;;;;;;4903586;29;20230;-69
2021/04/13 11:55:41;;;;;;;1.75;1.25;;;8.00;99.90;;;;;;4897569;29;20290;-70
2021/04/13 11:58:13;;;;;;;3.33;1.98;;;8.10;99.90;;;;;;4898879;29;20215;-73
2021/04/13 12:00:39;;;;;;;4.88;1.67;;;8.30;99.90;;;;;;4910219;29;20301;-73
2021/04/13 12:03:41;;;;;;;2.95;1.15;;;8.40;99.90;;;;;;4912592;29;20230;-73
2021/04/13 12:06:12;;;;;;;2.92;1.48;;;8.60;99.90;;;;;;4907303;29;20349;-71
2021/04/13 12:08:42;;;;;;;2.25;1.90;;;8.80;99.90;;;;;;4897635;29;20674;-69
2021/04/13 12:11:09;;;;;;;5.80;1.63;;;8.90;99.90;;;;;;4908138;29;20241;-69
2021/04/13 12:13:40;;;;;;;7.32;1.42;;;9.00;99.90;;;;;;4905628;29;20683;-68
2021/04/13 12:16:06;;;;;;;3.45;1.10;;;9.00;99.90;;;;;;4903754;29;20647;-68
2021/04/13 12:19:11;;;;;;;6.43;3.45;;;8.90;99.90;;;;;;4907188;29;20278;-68
2021/04/13 12:21:53;;;;;;;4.75;1.40;;;8.80;99.90;;;;;;4898753;29;20232;-68
2021/04/13 12:24:49;;;;;;;6.50;1.73;;;8.50;99.90;;;;;;4907456;29;20294;-68
2021/04/13 12:27:47;;;;;;;1.23;1.23;;;8.40;99.90;;;;;;4907871;29;20229;-67
2021/04/13 12:30:55;;;;;;;3.83;1.40;;;8.30;99.90;;;;;;4891498;29;20210;-68
2021/04/13 12:33:59;;;;;;;3.95;1.30;;;8.30;99.90;;;;;;4897143;29;20211;-68
2021/04/13 12:36:53;;;;;;;2.65;1.80;;;8.60;99.90;;;;;;4858368;29;20256;-67
2021/04/13 12:39:45;;;;;;;3.67;1.45;;;8.80;99.90;;;;;;4861734;29;20357;-68
2021/04/13 12:42:39;;;;;;;2.60;1.35;;;8.90;99.90;;;;;;4906784;29;20230;-68
2021/04/13 12:45:50;;;;;;;1.85;1.20;;;8.90;99.90;;;;;;4914432;29;20202;-71
2021/04/13 12:48:21;;;;;;;3.60;1.58;;;8.80;99.90;;;;;;4915910;29;20238;-67
2021/04/13 12:50:53;;;;;;;3.00;1.67;;;8.80;99.90;;;;;;4915668;29;20293;-68
2021/04/13 12:53:22;;;;;;;3.45;1.40;;;8.80;99.90;;;;;;4915746;29;20214;-67
2021/04/13 12:55:59;;;;;;;3.20;1.30;;;8.90;99.90;;;;;;4914085;29;20214;-68
2021/04/13 12:58:30;;;;;;;2.58;1.23;;;8.80;99.90;;;;;;4897864;29;20214;-68
2021/04/13 13:00:57;;;;;;;1.20;1.10;;;8.80;99.90;;;;;;4896453;29;20238;-72
2021/04/13 13:03:31;;;;;;;1.63;1.52;;;8.90;99.90;;;;;;4910209;29;20203;-74
2021/04/13 13:05:57;;;;;;;4.30;1.70;;;9.20;99.90;;;;;;4908658;29;20211;-73
2021/04/13 13:08:28;;;;;;;6.07;1.60;;;9.50;99.90;;;;;;4914520;29;20229;-73
2021/04/13 13:10:56;;;;;;;2.15;1.30;;;9.70;99.90;;;;;;4915164;29;20321;-70
2021/04/13 13:13:26;;;;;;;1.55;1.45;;;9.90;99.90;;;;;;4899494;29;20263;-70
2021/04/13 13:15:53;;;;;;;6.38;2.00;;;10.10;99.90;;;;;;4899108;29;20274;-73
2021/04/13 13:18:24;;;;;;;6.22;1.75;;;10.00;99.90;;;;;;4915965;29;20257;-73
2021/04/13 13:20:59;;;;;;;1.35;1.25;;;9.70;99.90;;;;;;4916310;29;20230;-73
2021/04/13 13:23:30;;;;;;;2.03;1.50;;;9.50;99.90;;;;;;4896999;29;20215;-73
2021/04/13 13:25:56;;;;;;;9.43;1.77;;;9.20;99.90;;;;;;4904788;29;20206;-73
2021/04/13 13:28:24;;;;;;;9.68;1.42;;;9.00;99.90;;;;;;4915774;29;20207;-72
2021/04/13 13:30:52;;;;;;;2.38;0.80;;;9.10;99.90;;;;;;4900031;29;20318;-72
2021/04/13 13:33:20;;;;;;;6.03;1.58;;;9.00;99.90;;;;;;4908727;29;20211;-73
2021/04/13 13:35:47;;;;;;;3.30;0.95;;;9.10;99.90;;;;;;4913771;29;20288;-72
2021/04/13 13:38:17;;;;;;;2.55;0.95;;;9.30;99.90;;;;;;4912008;29;20222;-73
2021/04/13 13:40:44;;;;;;;2.92;1.02;;;9.40;99.90;;;;;;4900075;29;20238;-74
2021/04/13 13:43:12;;;;;;;4.43;1.38;;;9.30;99.90;;;;;;4917317;29;20567;-73
2021/04/13 13:45:42;;;;;;;3.42;1.40;;;9.20;99.90;;;;;;4912323;29;20628;-73
2021/04/13 13:48:17;;;;;;;2.38;0.70;;;9.20;99.90;;;;;;4899501;29;20680;-74
2021/04/13 13:50:45;;;;;;;1.05;0.70;;;9.20;99.90;;;;;;4900097;29;20234;-73
2021/04/13 13:53:19;;;;;;;3.80;1.40;;;9.20;99.90;;;;;;4900010;29;20379;-73
2021/04/13 13:55:56;;;;;;;3.60;0.90;;;9.20;99.90;;;;;;4899545;29;20207;-73
2021/04/13 13:58:24;;;;;;;0.85;0.85;;;9.20;99.90;;;;;;4906806;29;20218;-73
2021/04/13 14:00:53;;;;;;;2.25;0.80;;;9.20;99.90;;;;;;4899629;29;20683;-73
2021/04/13 14:03:24;;;;;;;1.55;1.10;;;9.20;99.90;;;;;;4899142;29;20207;-73
2021/04/13 14:05:53;;;;;;;1.00;1.00;;;9.20;99.90;;;;;;4899706;29;20270;-73
2021/04/13 14:08:31;;;;;;;4.65;1.00;;;9.20;99.90;;;;;;4899479;29;20354;-73
2021/04/13 14:11:11;;;;;;;5.53;2.33;;;9.10;99.90;;;;;;4899028;29;20606;-73
2021/04/13 14:13:39;;;;;;;1.08;1.02;;;9.20;99.90;;;;;;4899929;29;20211;-73
2021/04/13 14:16:29;;;;;;;1.27;0.70;;;9.10;99.90;;;;;;4899966;29;20210;-74
2021/04/13 14:18:57;;;;;;;2.80;1.05;;;9.10;99.90;;;;;;4901601;29;20211;-73
2021/04/13 14:21:34;;;;;;;1.67;1.23;;;9.00;99.90;;;;;;4902684;29;20249;-74
2021/04/13 14:24:11;;;;;;;2.03;1.00;;;8.90;99.90;;;;;;4901007;29;20573;-71
2021/04/13 14:26:37;;;;;;;1.45;0.77;;;8.80;99.90;;;;;;4899462;29;20210;-71
2021/04/13 14:29:06;;;;;;;3.78;0.95;;;8.80;99.90;;;;;;4899892;29;20214;-71
2021/04/13 14:31:32;;;;;;;1.83;0.75;;;8.80;99.90;;;;;;4914283;29;20222;-72
2021/04/13 14:33:59;;;;;;;3.38;0.73;;;8.80;99.90;;;;;;4918212;29;20277;-73
2021/04/13 14:36:25;;;;;;;0.60;0.60;;;8.80;99.90;;;;;;4918074;29;20265;-73
2021/04/13 14:38:51;;;;;;;3.15;1.00;;;8.90;99.90;;;;;;4917560;29;20639;-73
2021/04/13 14:41:18;;;;;;;1.88;1.15;;;9.00;99.90;;;;;;4918093;29;20313;-73
2021/04/13 14:43:44;;;;;;;3.50;1.10;;;9.00;99.90;;;;;;4917317;29;20214;-73
2021/04/13 14:46:10;;;;;;;2.60;1.15;;;9.00;99.90;;;;;;4910859;29;20207;-73
2021/04/13 14:48:36;;;;;;;1.27;0.77;;;8.90;99.90;;;;;;4898565;29;20214;-73
2021/04/13 14:51:04;;;;;;;3.22;1.00;;;8.90;99.90;;;;;;4898838;29;20706;-74
2021/04/13 14:53:30;;;;;;;4.30;1.27;;;8.90;99.90;;;;;;4898630;29;20844;-74
2021/04/13 14:55:56;;;;;;;1.75;0.93;;;9.00;99.90;;;;;;4898410;29;20318;-73
2021/04/13 14:58:23;;;;;;;1.23;0.85;;;9.00;99.90;;;;;;4898998;29;20215;-73
2021/04/13 15:00:50;;;;;;;2.10;0.90;;;9.10;99.90;;;;;;4898522;29;20258;-73
2021/04/13 15:03:17;;;;;;;3.35;2.00;;;9.30;99.90;;;;;;4908874;29;20217;-74
2021/04/13 15:05:45;;;;;;;1.02;0.90;;;9.50;99.90;;;;;;4905889;29;20207;-74
2021/04/13 15:08:16;;;;;;;2.80;0.70;;;9.60;99.90;;;;;;4922804;29;20576;-74
2021/04/13 15:10:42;;;;;;;6.68;1.20;;;9.50;99.90;;;;;;4919264;29;20226;-74
2021/04/13 15:13:08;;;;;;;4.13;1.35;;;9.20;99.90;;;;;;4918261;29;20214;-74
2021/04/13 15:15:35;;;;;;;2.05;1.08;;;8.90;99.90;;;;;;4919076;29;20215;-74
2021/04/13 15:18:03;;;;;;;2.03;0.63;;;8.80;99.90;;;;;;4915148;29;20217;-75
2021/04/13 15:20:29;;;;;;;2.80;1.02;;;8.70;99.90;;;;;;4919098;29;20222;-76
2021/04/13 15:22:56;;;;;;;0.90;0.75;;;8.70;99.90;;;;;;4914539;29;20263;-75
2021/04/13 15:25:24;;;;;;;0.95;0.95;;;8.80;99.90;;;;;;4925417;29;20282;-75
2021/04/13 15:27:52;;;;;;;1.25;0.90;;;8.80;99.90;;;;;;4921289;29;20207;-75
2021/04/13 15:30:20;;;;;;;2.63;1.05;;;8.80;99.90;;;;;;4925702;29;20226;-75
2021/04/13 15:32:46;;;;;;;2.05;0.80;;;8.90;99.90;;;;;;4903532;29;20231;-75
2021/04/13 15:35:20;;;;;;;4.88;1.42;;;8.90;99.90;;;;;;4909659;29;20222;-76
2021/04/13 15:37:49;;;;;;;3.33;1.13;;;9.00;99.90;;;;;;4907765;29;20203;-76
2021/04/13 15:40:19;;;;;;;5.43;0.80;;;9.10;99.90;;;;;;4911894;29;20211;-75
2021/04/13 15:42:53;;;;;;;2.47;1.20;;;9.10;99.90;;;;;;4901656;29;20216;-73
2021/04/13 15:45:28;;;;;;;0.90;0.90;;;9.10;99.90;;;;;;4910148;29;20545;-71
2021/04/13 15:47:56;;;;;;;2.70;0.80;;;9.00;99.90;;;;;;4905901;29;20219;-71
2021/04/13 15:50:22;;;;;;;2.75;0.90;;;8.90;99.90;;;;;;4902432;29;20289;-71
2021/04/13 15:52:51;;;;;;;1.48;1.38;;;8.80;99.90;;;;;;4899811;29;20222;-72
2021/04/13 15:55:17;;;;;;;2.65;0.90;;;8.90;99.90;;;;;;4907167;29;20217;-72
2021/04/13 15:57:43;;;;;;;5.20;1.10;;;8.90;99.90;;;;;;4924363;29;20198;-72
2021/04/13 16:00:11;;;;;;;1.40;0.90;;;8.80;99.90;;;;;;4928570;29;20218;-73
2021/04/13 16:02:37;;;;;;;1.05;0.70;;;8.80;99.90;;;;;;4905428;29;20234;-71
2021/04/13 16:05:04;;;;;;;0.98;0.98;;;8.70;99.90;;;;;;4918101;29;20237;-72
2021/04/13 16:07:31;;;;;;;1.65;1.00;;;8.80;99.90;;;;;;4918158;29;20221;-72
2021/04/13 16:09:57;;;;;;;3.78;1.83;;;8.80;99.90;;;;;;4910143;29;20496;-71
2021/04/13 16:12:23;;;;;;;1.98;0.93;;;8.80;99.90;;;;;;4897972;29;20238;-72
2021/04/13 16:14:49;;;;;;;0.98;0.73;;;8.70;99.90;;;;;;4911836;29;20211;-71
2021/04/13 16:17:16;;;;;;;3.45;1.45;;;8.60;99.90;;;;;;4907106;29;20221;-72
2021/04/13 16:19:43;;;;;;;1.48;1.23;;;8.60;99.90;;;;;;4898238;29;20271;-71
2021/04/13 16:22:09;;;;;;;1.58;0.50;;;8.60;99.90;;;;;;4910583;29;20309;-70
2021/04/13 16:24:35;;;;;;;1.08;0.77;;;8.50;99.90;;;;;;4910788;29;20301;-70
2021/04/13 16:27:01;;;;;;;2.70;1.40;;;8.50;99.90;;;;;;4916213;29;20290;-70
2021/04/13 16:29:27;;;;;;;3.40;1.30;;;8.40;99.90;;;;;;4912324;29;20218;-70
2021/04/13 16:31:56;;;;;;;1.20;1.00;;;8.40;99.90;;;;;;4900384;29;20227;-70
2021/04/13 16:34:26;;;;;;;1.25;1.15;;;8.40;99.90;;;;;;4897253;29;20548;-70
2021/04/13 16:36:54;;;;;;;4.82;2.30;;;8.40;99.90;;;;;;4906345;29;20214;-69
2021/04/13 16:39:40;;;;;;;8.10;5.35;;;8.40;99.90;;;;;;4910243;29;20206;-73
2021/04/13 16:42:10;;;;;;;1.95;1.60;;;8.30;99.90;;;;;;4905868;29;20216;-72
2021/04/13 16:44:39;;;;;;;1.30;0.80;;;8.30;99.90;;;;;;4899460;29;20315;-73
2021/04/13 16:47:07;;;;;;;4.53;1.30;;;8.30;99.90;;;;;;4907516;29;20203;-72
2021/04/13 16:49:35;;;;;;;1.58;0.95;;;8.30;99.90;;;;;;4897380;29;20223;-73
2021/04/13 16:52:05;;;;;;;3.53;1.20;;;8.20;99.90;;;;;;4898603;29;20235;-70
2021/04/13 16:54:31;;;;;;;1.63;1.17;;;8.10;99.90;;;;;;4915480;29;20297;-71
2021/04/13 16:56:58;;;;;;;1.25;1.15;;;8.10;99.90;;;;;;4898438;29;20211;-72
2021/04/13 16:59:27;;;;;;;4.57;0.95;;;8.00;99.90;;;;;;4916527;29;20691;-72
2021/04/13 17:01:58;;;;;;;6.60;2.85;;;8.00;99.90;;;;;;4913221;29;20597;-73
2021/04/13 17:04:40;;;;;;;3.75;1.42;;;7.80;99.90;;;;;;4916987;29;20217;-73
2021/04/13 17:07:19;;;;;;;2.85;1.17;;;7.80;99.90;;;;;;4911295;29;20489;-72
2021/04/13 17:09:52;;;;;;;2.83;1.45;;;7.80;99.90;;;;;;4915277;29;20206;-72
2021/04/13 17:12:23;;;;;;;6.63;1.90;;;7.80;99.90;;;;;;4917015;29;20637;-72
2021/04/13 17:14:55;;;;;;;3.47;1.80;;;7.80;99.90;;;;;;4919228;29;20202;-70
2021/04/13 17:17:27;;;;;;;8.35;5.13;;;7.70;99.90;;;;;;4904328;29;20507;-69
2021/04/13 17:19:54;;;;;;;7.40;5.60;;;7.70;99.90;;;;;;4913863;29;20203;-70
2021/04/13 17:22:22;;;;;;;2.35;1.65;;;7.70;99.90;;;;;;4918600;29;20230;-70
2021/04/13 17:24:52;;;;;;;1.88;1.88;;;7.60;99.90;;;;;;4918115;29;20306;-69
2021/04/13 17:27:20;;;;;;;2.17;1.48;;;7.60;99.90;;;;;;4900568;29;20211;-70
2021/04/13 17:29:51;;;;;;;4.80;1.33;;;7.50;99.90;;;;;;4910908;29;20293;-70
2021/04/13 17:32:18;;;;;;;4.55;1.45;;;7.30;99.90;;;;;;4918236;29;20614;-71
2021/04/13 17:34:45;;;;;;;1.40;1.30;;;7.20;99.90;;;;;;4909011;29;20215;-71